sensor_id;sensor_type;location;lat;lon;timestamp;pressure;altitude;pressure_sealevel;temperature;humidity
14134;BME280;7147;59.364;18.018;2022-08-25T00:00:34;102115.91;;;14.81;100.00
14134;BME280;7147;59.364;18.018;2022-08-25T00:03:01;102119.25;;;14.76;100.00
14134;BME280;7147;59.364;18.018;2022-08-25T00:05:29;102116.22;;;14.71;100.00
14134;BME280;7147;59.364;18.018;2022-08-25T00:07:56;102104.25;;;14.64;100.00
14134;BME280;7147;59.364;18.018;2022-08-25T00:10:23;102109.78;;;14.64;100.00
14134;BME280;7147;59.364;18.018;2022-08-25T00:12:50;102111.41;;;14.59;100.00
14134;BME280;7147;59.364;18.018;2022-08-25T00:15:17;102109.22;;;14.54;100.00
14134;BME280;7147;59.364;18.018;2022-08-25T00:17:46;102103.03;;;14.52;100.00
14134;BME280;7147;59.364;18.018;2022-08-25T00:20:13;102107.72;;;14.51;100.00
14134;BME280;7147;59.364;18.018;2022-08-25T00:22:41;102105.34;;;14.48;100.00
14134;BME280;7147;59.364;18.018;2022-08-25T00:25:09;102112.13;;;14.46;100.00
14134;BME280;7147;59.364;18.018;2022-08-25T00:27:37;102111.84;;;14.41;100.00
14134;BME280;7147;59.364;18.018;2022-08-25T00:30:05;102112.63;;;14.35;100.00
14134;BME280;7147;59.364;18.018;2022-08-25T00:32:32;102121.28;;;14.32;100.00
14134;BME280;7147;59.364;18.018;2022-08-25T00:34:58;102117.00;;;14.29;100.00
14134;BME280;7147;59.364;18.018;2022-08-25T00:37:25;102116.16;;;14.29;100.00
14134;BME280;7147;59.364;18.018;2022-08-25T00:39:54;102113.09;;;14.24;100.00
14134;BME280;7147;59.364;18.018;2022-08-25T00:42:22;102113.31;;;14.22;100.00
14134;BME280;7147;59.364;18.018;2022-08-25T00:44:49;102114.56;;;14.20;100.00
14134;BME280;7147;59.364;18.018;2022-08-25T00:47:17;102112.81;;;14.19;100.00
14134;BME280;7147;59.364;18.018;2022-08-25T00:49:46;102118.09;;;14.14;100.00
14134;BME280;7147;59.364;18.018;2022-08-25T00:52:18;102116.84;;;14.16;100.00
14134;BME280;7147;59.364;18.018;2022-08-25T00:54:52;102113.22;;;14.16;100.00
14134;BME280;7147;59.364;18.018;2022-08-25T00:57:23;102114.25;;;14.15;100.00
14134;BME280;7147;59.364;18.018;2022-08-25T00:59:52;102118.09;;;14.14;100.00
14134;BME280;7147;59.364;18.018;2022-08-25T01:02:19;102123.81;;;14.12;100.00
14134;BME280;7147;59.364;18.018;2022-08-25T01:04:47;102108.44;;;14.10;100.00
14134;BME280;7147;59.364;18.018;2022-08-25T01:07:16;102112.94;;;14.11;100.00
14134;BME280;7147;59.364;18.018;2022-08-25T01:09:49;102117.78;;;14.09;100.00
14134;BME280;7147;59.364;18.018;2022-08-25T01:12:16;102106.06;;;14.07;100.00
14134;BME280;7147;59.364;18.018;2022-08-25T01:14:45;102109.44;;;14.02;100.00
14134;BME280;7147;59.364;18.018;2022-08-25T01:17:13;102108.47;;;13.95;100.00
14134;BME280;7147;59.364;18.018;2022-08-25T01:19:40;102116.94;;;13.93;100.00
14134;BME280;7147;59.364;18.018;2022-08-25T01:22:09;102118.03;;;13.92;100.00
14134;BME280;7147;59.364;18.018;2022-08-25T01:24:39;102107.59;;;13.94;100.00
14134;BME280;7147;59.364;18.018;2022-08-25T01:27:08;102117.63;;;13.95;100.00
14134;BME280;7147;59.364;18.018;2022-08-25T01:29:36;102117.81;;;13.94;100.00
14134;BME280;7147;59.364;18.018;2022-08-25T01:32:06;102106.28;;;13.90;100.00
14134;BME280;7147;59.364;18.018;2022-08-25T01:34:35;102119.06;;;13.91;100.00
14134;BME280;7147;59.364;18.018;2022-08-25T01:37:05;102112.66;;;13.91;100.00
14134;BME280;7147;59.364;18.018;2022-08-25T01:39:34;102115.03;;;13.94;100.00
14134;BME280;7147;59.364;18.018;2022-08-25T01:42:17;102121.94;;;13.98;100.00
14134;BME280;7147;59.364;18.018;2022-08-25T01:44:46;102121.25;;;13.96;100.00
14134;BME280;7147;59.364;18.018;2022-08-25T01:47:13;102113.16;;;13.94;100.00
14134;BME280;7147;59.364;18.018;2022-08-25T01:49:40;102114.38;;;13.92;100.00
14134;BME280;7147;59.364;18.018;2022-08-25T01:52:11;102107.72;;;13.86;100.00
14134;BME280;7147;59.364;18.018;2022-08-25T01:54:42;102095.91;;;13.78;100.00
14134;BME280;7147;59.364;18.018;2022-08-25T01:57:09;102108.47;;;13.80;100.00
14134;BME280;7147;59.364;18.018;2022-08-25T01:59:35;102112.13;;;13.81;100.00
14134;BME280;7147;59.364;18.018;2022-08-25T02:02:02;102122.31;;;13.80;100.00
14134;BME280;7147;59.364;18.018;2022-08-25T02:04:29;102114.41;;;13.77;100.00
14134;BME280;7147;59.364;18.018;2022-08-25T02:06:57;102120.97;;;13.76;100.00
14134;BME280;7147;59.364;18.018;2022-08-25T02:09:24;102113.34;;;13.78;100.00
14134;BME280;7147;59.364;18.018;2022-08-25T02:11:52;102116.31;;;13.77;100.00
14134;BME280;7147;59.364;18.018;2022-08-25T02:14:19;102113.75;;;13.75;100.00
14134;BME280;7147;59.364;18.018;2022-08-25T02:16:48;102116.69;;;13.74;100.00
14134;BME280;7147;59.364;18.018;2022-08-25T02:19:16;102119.28;;;13.75;100.00
14134;BME280;7147;59.364;18.018;2022-08-25T02:21:43;102111.16;;;13.74;100.00
14134;BME280;7147;59.364;18.018;2022-08-25T02:24:10;102114.13;;;13.72;100.00
14134;BME280;7147;59.364;18.018;2022-08-25T02:26:38;102089.41;;;13.56;100.00
14134;BME280;7147;59.364;18.018;2022-08-25T02:29:06;102107.13;;;13.62;100.00
14134;BME280;7147;59.364;18.018;2022-08-25T02:31:34;102107.13;;;13.62;100.00
14134;BME280;7147;59.364;18.018;2022-08-25T02:34:02;102095.59;;;13.58;100.00
14134;BME280;7147;59.364;18.018;2022-08-25T02:36:29;102107.72;;;13.57;100.00
14134;BME280;7147;59.364;18.018;2022-08-25T02:38:56;102117.06;;;13.56;100.00
14134;BME280;7147;59.364;18.018;2022-08-25T02:41:24;102108.97;;;13.55;100.00
14134;BME280;7147;59.364;18.018;2022-08-25T02:43:51;102113.63;;;13.54;100.00
14134;BME280;7147;59.364;18.018;2022-08-25T02:46:21;102105.72;;;13.51;100.00
14134;BME280;7147;59.364;18.018;2022-08-25T02:48:50;102110.88;;;13.54;100.00
14134;BME280;7147;59.364;18.018;2022-08-25T02:51:18;102112.78;;;13.54;100.00
14134;BME280;7147;59.364;18.018;2022-08-25T02:53:46;102100.28;;;13.43;100.00
14134;BME280;7147;59.364;18.018;2022-08-25T02:56:14;102108.47;;;13.51;100.00
14134;BME280;7147;59.364;18.018;2022-08-25T02:58:41;102114.00;;;13.51;100.00
14134;BME280;7147;59.364;18.018;2022-08-25T03:01:10;102117.44;;;13.53;100.00
14134;BME280;7147;59.364;18.018;2022-08-25T03:03:39;102115.25;;;13.49;100.00
14134;BME280;7147;59.364;18.018;2022-08-25T03:06:07;102112.28;;;13.50;100.00
14134;BME280;7147;59.364;18.018;2022-08-25T03:08:34;102113.53;;;13.48;100.00
14134;BME280;7147;59.364;18.018;2022-08-25T03:11:01;102118.88;;;13.49;100.00
14134;BME280;7147;59.364;18.018;2022-08-25T03:13:28;102114.19;;;13.50;100.00
14134;BME280;7147;59.364;18.018;2022-08-25T03:15:57;102112.00;;;13.45;100.00
14134;BME280;7147;59.364;18.018;2022-08-25T03:18:24;102117.53;;;13.45;100.00
14134;BME280;7147;59.364;18.018;2022-08-25T03:20:53;102117.53;;;13.45;100.00
14134;BME280;7147;59.364;18.018;2022-08-25T03:23:20;102104.75;;;13.44;100.00
14134;BME280;7147;59.364;18.018;2022-08-25T03:25:46;102124.59;;;13.48;100.00
14134;BME280;7147;59.364;18.018;2022-08-25T03:28:31;102112.88;;;13.46;100.00
14134;BME280;7147;59.364;18.018;2022-08-25T03:30:59;102102.19;;;13.43;100.00
14134;BME280;7147;59.364;18.018;2022-08-25T03:33:26;102119.81;;;13.56;100.00
14134;BME280;7147;59.364;18.018;2022-08-25T03:35:54;102116.50;;;13.61;100.00
14134;BME280;7147;59.364;18.018;2022-08-25T03:38:21;102119.06;;;13.62;100.00
14134;BME280;7147;59.364;18.018;2022-08-25T03:40:48;102115.44;;;13.62;100.00
14134;BME280;7147;59.364;18.018;2022-08-25T03:43:15;102110.09;;;13.60;100.00
14134;BME280;7147;59.364;18.018;2022-08-25T03:45:43;102108.38;;;13.59;100.00
14134;BME280;7147;59.364;18.018;2022-08-25T03:48:10;102109.03;;;13.61;100.00
14134;BME280;7147;59.364;18.018;2022-08-25T03:50:43;102105.22;;;13.62;100.00
14134;BME280;7147;59.364;18.018;2022-08-25T03:53:11;102112.88;;;13.60;100.00
14134;BME280;7147;59.364;18.018;2022-08-25T03:55:39;102108.38;;;13.59;100.00
14134;BME280;7147;59.364;18.018;2022-08-25T03:58:06;102110.28;;;13.59;100.00
14134;BME280;7147;59.364;18.018;2022-08-25T04:00:35;102117.16;;;13.63;100.00
14134;BME280;7147;59.364;18.018;2022-08-25T04:03:02;102112.88;;;13.89;100.00
14134;BME280;7147;59.364;18.018;2022-08-25T04:05:29;102116.81;;;14.31;100.00
14134;BME280;7147;59.364;18.018;2022-08-25T04:07:55;102116.25;;;14.35;100.00
14134;BME280;7147;59.364;18.018;2022-08-25T04:10:24;102107.66;;;14.30;100.00
14134;BME280;7147;59.364;18.018;2022-08-25T04:12:51;102119.22;;;14.34;100.00
14134;BME280;7147;59.364;18.018;2022-08-25T04:15:17;102113.88;;;14.32;100.00
14134;BME280;7147;59.364;18.018;2022-08-25T04:17:44;102104.66;;;14.32;100.00
14134;BME280;7147;59.364;18.018;2022-08-25T04:20:11;102114.91;;;14.31;100.00
14134;BME280;7147;59.364;18.018;2022-08-25T04:22:38;102114.03;;;14.31;100.00
14134;BME280;7147;59.364;18.018;2022-08-25T04:25:07;102116.25;;;14.35;100.00
14134;BME280;7147;59.364;18.018;2022-08-25T04:27:35;102112.53;;;14.43;100.00
14134;BME280;7147;59.364;18.018;2022-08-25T04:30:04;102118.16;;;14.49;100.00
14134;BME280;7147;59.364;18.018;2022-08-25T04:32:31;102113.25;;;14.51;100.00
14134;BME280;7147;59.364;18.018;2022-08-25T04:34:58;102119.06;;;14.57;100.00
14134;BME280;7147;59.364;18.018;2022-08-25T04:37:24;102117.41;;;14.62;100.00
14134;BME280;7147;59.364;18.018;2022-08-25T04:39:51;102122.00;;;14.70;100.00
14134;BME280;7147;59.364;18.018;2022-08-25T04:42:18;102113.47;;;14.71;100.00
14134;BME280;7147;59.364;18.018;2022-08-25T04:44:47;102111.63;;;14.78;100.00
14134;BME280;7147;59.364;18.018;2022-08-25T04:47:14;102121.06;;;14.84;100.00
14134;BME280;7147;59.364;18.018;2022-08-25T04:49:43;102118.81;;;14.94;100.00
14134;BME280;7147;59.364;18.018;2022-08-25T04:52:10;102118.28;;;15.05;100.00
14134;BME280;7147;59.364;18.018;2022-08-25T04:54:37;102117.09;;;15.14;100.00
14134;BME280;7147;59.364;18.018;2022-08-25T04:57:04;102117.59;;;15.24;100.00
14134;BME280;7147;59.364;18.018;2022-08-25T04:59:31;102122.16;;;15.32;100.00
14134;BME280;7147;59.364;18.018;2022-08-25T05:02:00;102116.44;;;15.40;100.00
14134;BME280;7147;59.364;18.018;2022-08-25T05:04:30;102117.19;;;15.48;100.00
14134;BME280;7147;59.364;18.018;2022-08-25T05:06:57;102117.75;;;15.44;100.00
14134;BME280;7147;59.364;18.018;2022-08-25T05:09:25;102119.59;;;15.58;100.00
14134;BME280;7147;59.364;18.018;2022-08-25T05:11:52;102122.03;;;15.74;100.00
14134;BME280;7147;59.364;18.018;2022-08-25T05:14:19;102130.88;;;15.84;100.00
14134;BME280;7147;59.364;18.018;2022-08-25T05:16:47;102117.69;;;15.93;100.00
14134;BME280;7147;59.364;18.018;2022-08-25T05:19:15;102118.19;;;16.03;100.00
14134;BME280;7147;59.364;18.018;2022-08-25T05:21:42;102120.31;;;16.07;100.00
14134;BME280;7147;59.364;18.018;2022-08-25T05:24:09;102119.91;;;16.10;100.00
14134;BME280;7147;59.364;18.018;2022-08-25T05:26:36;102126.97;;;16.13;100.00
14134;BME280;7147;59.364;18.018;2022-08-25T05:29:03;102118.84;;;16.18;100.00
14134;BME280;7147;59.364;18.018;2022-08-25T05:31:32;102118.88;;;16.25;100.00
14134;BME280;7147;59.364;18.018;2022-08-25T05:34:04;102120.47;;;16.40;100.00
14134;BME280;7147;59.364;18.018;2022-08-25T05:36:33;102117.19;;;16.84;100.00
14134;BME280;7147;59.364;18.018;2022-08-25T05:39:00;102122.78;;;17.43;100.00
14134;BME280;7147;59.364;18.018;2022-08-25T05:41:29;102128.28;;;17.96;100.00
14134;BME280;7147;59.364;18.018;2022-08-25T05:43:56;102120.66;;;18.35;100.00
14134;BME280;7147;59.364;18.018;2022-08-25T05:46:23;102104.94;;;18.48;100.00
14134;BME280;7147;59.364;18.018;2022-08-25T05:48:50;102136.94;;;18.83;100.00
14134;BME280;7147;59.364;18.018;2022-08-25T05:51:18;102131.59;;;19.13;100.00
14134;BME280;7147;59.364;18.018;2022-08-25T05:53:48;102137.06;;;19.26;100.00
14134;BME280;7147;59.364;18.018;2022-08-25T05:56:16;102122.44;;;19.30;100.00
14134;BME280;7147;59.364;18.018;2022-08-25T05:58:43;102114.41;;;19.40;100.00
14134;BME280;7147;59.364;18.018;2022-08-25T06:01:19;102133.56;;;19.62;100.00
14134;BME280;7147;59.364;18.018;2022-08-25T06:04:04;102134.81;;;19.66;100.00
14134;BME280;7147;59.364;18.018;2022-08-25T06:06:30;102136.81;;;19.59;100.00
14134;BME280;7147;59.364;18.018;2022-08-25T06:09:00;102142.38;;;19.59;100.00
14134;BME280;7147;59.364;18.018;2022-08-25T06:11:29;102138.00;;;19.44;100.00
14134;BME280;7147;59.364;18.018;2022-08-25T06:13:56;102142.19;;;19.29;100.00
14134;BME280;7147;59.364;18.018;2022-08-25T06:16:22;102140.53;;;19.21;100.00
14134;BME280;7147;59.364;18.018;2022-08-25T06:18:49;102138.69;;;19.09;100.00
14134;BME280;7147;59.364;18.018;2022-08-25T06:21:16;102140.91;;;19.00;100.00
14134;BME280;7147;59.364;18.018;2022-08-25T06:23:43;102137.84;;;18.77;100.00
14134;BME280;7147;59.364;18.018;2022-08-25T06:26:12;102140.06;;;18.62;100.00
14134;BME280;7147;59.364;18.018;2022-08-25T06:28:39;102130.47;;;18.45;100.00
14134;BME280;7147;59.364;18.018;2022-08-25T06:31:07;102131.81;;;18.35;100.00
14134;BME280;7147;59.364;18.018;2022-08-25T06:33:34;102147.88;;;18.33;100.00
14134;BME280;7147;59.364;18.018;2022-08-25T06:36:02;102145.13;;;18.27;100.00
14134;BME280;7147;59.364;18.018;2022-08-25T06:38:29;102147.44;;;18.36;100.00
14134;BME280;7147;59.364;18.018;2022-08-25T06:40:56;102150.81;;;18.52;100.00
14134;BME280;7147;59.364;18.018;2022-08-25T06:43:24;102158.25;;;18.71;100.00
14134;BME280;7147;59.364;18.018;2022-08-25T06:45:52;102150.34;;;18.68;100.00
14134;BME280;7147;59.364;18.018;2022-08-25T06:48:18;102144.31;;;18.71;100.00
14134;BME280;7147;59.364;18.018;2022-08-25T06:50:45;102152.22;;;18.74;100.00
14134;BME280;7147;59.364;18.018;2022-08-25T06:53:12;102137.41;;;18.80;100.00
14134;BME280;7147;59.364;18.018;2022-08-25T06:55:39;102139.50;;;18.84;100.00
14134;BME280;7147;59.364;18.018;2022-08-25T06:58:06;102152.28;;;18.99;100.00
14134;BME280;7147;59.364;18.018;2022-08-25T07:00:35;102141.44;;;18.84;100.00
14134;BME280;7147;59.364;18.018;2022-08-25T07:03:03;102148.28;;;18.88;100.00
14134;BME280;7147;59.364;18.018;2022-08-25T07:05:30;102156.13;;;19.04;100.00
14134;BME280;7147;59.364;18.018;2022-08-25T07:07:57;102158.72;;;18.99;100.00
14134;BME280;7147;59.364;18.018;2022-08-25T07:10:24;102150.19;;;18.94;100.00
14134;BME280;7147;59.364;18.018;2022-08-25T07:12:51;102144.84;;;19.17;100.00
14134;BME280;7147;59.364;18.018;2022-08-25T07:15:18;102154.03;;;19.24;100.00
14134;BME280;7147;59.364;18.018;2022-08-25T07:17:47;102154.66;;;19.26;100.00
14134;BME280;7147;59.364;18.018;2022-08-25T07:20:14;102157.16;;;19.41;100.00
14134;BME280;7147;59.364;18.018;2022-08-25T07:22:41;102160.50;;;19.49;100.00
14134;BME280;7147;59.364;18.018;2022-08-25T07:25:09;102166.38;;;19.41;100.00
14134;BME280;7147;59.364;18.018;2022-08-25T07:27:37;102158.78;;;19.48;100.00
14134;BME280;7147;59.364;18.018;2022-08-25T07:30:07;102171.59;;;19.63;100.00
14134;BME280;7147;59.364;18.018;2022-08-25T07:32:34;102171.13;;;19.66;100.00
14134;BME280;7147;59.364;18.018;2022-08-25T07:35:02;102178.22;;;19.86;100.00
14134;BME280;7147;59.364;18.018;2022-08-25T07:37:42;102180.28;;;19.73;100.00
14134;BME280;7147;59.364;18.018;2022-08-25T07:40:11;102170.47;;;19.64;100.00
14134;BME280;7147;59.364;18.018;2022-08-25T07:42:38;102174.53;;;19.68;100.00
14134;BME280;7147;59.364;18.018;2022-08-25T07:45:06;102174.28;;;19.69;100.00
14134;BME280;7147;59.364;18.018;2022-08-25T07:47:34;102169.66;;;19.63;100.00
14134;BME280;7147;59.364;18.018;2022-08-25T07:50:03;102170.25;;;19.65;100.00
14134;BME280;7147;59.364;18.018;2022-08-25T07:52:31;102173.56;;;19.80;100.00
14134;BME280;7147;59.364;18.018;2022-08-25T07:54:57;102169.69;;;19.99;100.00
14134;BME280;7147;59.364;18.018;2022-08-25T07:57:24;102166.38;;;20.09;100.00
14134;BME280;7147;59.364;18.018;2022-08-25T07:59:52;102167.31;;;20.03;100.00
14134;BME280;7147;59.364;18.018;2022-08-25T08:02:19;102165.31;;;20.10;100.00
14134;BME280;7147;59.364;18.018;2022-08-25T08:04:48;102163.63;;;20.27;100.00
14134;BME280;7147;59.364;18.018;2022-08-25T08:07:18;102172.31;;;20.19;100.00
14134;BME280;7147;59.364;18.018;2022-08-25T08:09:46;102178.53;;;20.39;100.00
14134;BME280;7147;59.364;18.018;2022-08-25T08:12:13;102161.56;;;20.52;100.00
14134;BME280;7147;59.364;18.018;2022-08-25T08:14:40;102166.72;;;20.37;100.00
14134;BME280;7147;59.364;18.018;2022-08-25T08:17:08;102158.69;;;20.59;100.00
14134;BME280;7147;59.364;18.018;2022-08-25T08:19:35;102166.41;;;20.64;100.00
14134;BME280;7147;59.364;18.018;2022-08-25T08:22:04;102173.69;;;20.65;100.00
14134;BME280;7147;59.364;18.018;2022-08-25T08:24:33;102176.31;;;20.78;100.00
14134;BME280;7147;59.364;18.018;2022-08-25T08:27:04;102179.91;;;20.96;100.00
14134;BME280;7147;59.364;18.018;2022-08-25T08:29:31;102179.81;;;21.03;100.00
14134;BME280;7147;59.364;18.018;2022-08-25T08:31:58;102168.63;;;21.03;99.46
14134;BME280;7147;59.364;18.018;2022-08-25T08:34:25;102194.44;;;21.05;93.32
14134;BME280;7147;59.364;18.018;2022-08-25T08:36:52;102187.13;;;21.04;91.66
14134;BME280;7147;59.364;18.018;2022-08-25T08:39:19;102186.94;;;21.17;90.95
14134;BME280;7147;59.364;18.018;2022-08-25T08:42:04;102187.72;;;21.24;89.62
14134;BME280;7147;59.364;18.018;2022-08-25T08:45:15;102185.34;;;21.09;89.44
14134;BME280;7147;59.364;18.018;2022-08-25T08:47:57;102194.88;;;21.20;84.45
14134;BME280;7147;59.364;18.018;2022-08-25T08:50:32;102198.91;;;21.24;83.10
14134;BME280;7147;59.364;18.018;2022-08-25T08:53:05;102187.72;;;21.24;81.13
14134;BME280;7147;59.364;18.018;2022-08-25T08:55:37;102194.81;;;21.38;80.18
14134;BME280;7147;59.364;18.018;2022-08-25T08:58:09;102193.72;;;21.39;78.83
14134;BME280;7147;59.364;18.018;2022-08-25T09:00:39;102189.59;;;21.42;73.38
14134;BME280;7147;59.364;18.018;2022-08-25T09:03:11;102185.72;;;21.43;74.01
14134;BME280;7147;59.364;18.018;2022-08-25T09:05:44;102179.50;;;21.52;74.61
14134;BME280;7147;59.364;18.018;2022-08-25T09:08:13;102178.41;;;21.65;72.78
14134;BME280;7147;59.364;18.018;2022-08-25T09:10:52;102178.44;;;21.77;72.85
14134;BME280;7147;59.364;18.018;2022-08-25T09:13:32;102179.53;;;21.76;72.30
14134;BME280;7147;59.364;18.018;2022-08-25T09:16:08;102179.06;;;21.79;72.27
14134;BME280;7147;59.364;18.018;2022-08-25T09:19:03;102180.16;;;21.78;73.24
14134;BME280;7147;59.364;18.018;2022-08-25T09:21:37;102173.94;;;21.76;73.93
14134;BME280;7147;59.364;18.018;2022-08-25T09:26:53;102171.75;;;22.01;73.54
14134;BME280;7147;59.364;18.018;2022-08-25T09:29:31;102158.84;;;22.00;72.98
14134;BME280;7147;59.364;18.018;2022-08-25T09:32:02;102173.22;;;22.15;72.79
14134;BME280;7147;59.364;18.018;2022-08-25T09:34:32;102170.91;;;22.12;72.75
14134;BME280;7147;59.364;18.018;2022-08-25T09:37:01;102155.91;;;22.06;72.63
14134;BME280;7147;59.364;18.018;2022-08-25T09:39:27;102161.63;;;22.35;72.15
14134;BME280;7147;59.364;18.018;2022-08-25T09:41:56;102158.66;;;22.41;70.63
14134;BME280;7147;59.364;18.018;2022-08-25T09:44:27;102167.34;;;22.28;70.53
14134;BME280;7147;59.364;18.018;2022-08-25T09:46:59;102159.88;;;22.45;69.69
14134;BME280;7147;59.364;18.018;2022-08-25T09:49:33;102165.84;;;22.49;68.68
14134;BME280;7147;59.364;18.018;2022-08-25T09:52:31;102160.69;;;22.57;68.63
14134;BME280;7147;59.364;18.018;2022-08-25T09:55:00;102164.88;;;22.43;67.14
14134;BME280;7147;59.364;18.018;2022-08-25T09:57:33;102155.34;;;22.44;67.46
14134;BME280;7147;59.364;18.018;2022-08-25T10:00:15;102154.34;;;22.50;66.11
14134;BME280;7147;59.364;18.018;2022-08-25T10:02:45;102143.63;;;22.47;66.52
14134;BME280;7147;59.364;18.018;2022-08-25T10:05:26;102143.44;;;22.77;65.76
14134;BME280;7147;59.364;18.018;2022-08-25T10:07:58;102140.94;;;22.92;64.81
14134;BME280;7147;59.364;18.018;2022-08-25T10:10:29;102136.53;;;22.96;64.52
14134;BME280;7147;59.364;18.018;2022-08-25T10:12:56;102137.31;;;22.80;63.54
14134;BME280;7147;59.364;18.018;2022-08-25T10:15:29;102133.72;;;22.68;64.05
14134;BME280;7147;59.364;18.018;2022-08-25T10:18:18;102127.00;;;22.69;65.81
14134;BME280;7147;59.364;18.018;2022-08-25T10:21:01;102135.88;;;22.77;65.42
14134;BME280;7147;59.364;18.018;2022-08-25T10:23:28;102119.03;;;22.77;63.19
14134;BME280;7147;59.364;18.018;2022-08-25T10:25:59;102124.44;;;22.96;63.19
14134;BME280;7147;59.364;18.018;2022-08-25T10:28:32;102128.19;;;23.01;63.40
14134;BME280;7147;59.364;18.018;2022-08-25T10:31:11;102128.38;;;23.11;63.66
14134;BME280;7147;59.364;18.018;2022-08-25T10:33:47;102112.50;;;22.89;63.80
14134;BME280;7147;59.364;18.018;2022-08-25T10:36:20;102114.84;;;23.08;63.99
14134;BME280;7147;59.364;18.018;2022-08-25T10:38:51;102103.53;;;23.20;62.97
14134;BME280;7147;59.364;18.018;2022-08-25T10:41:34;102098.94;;;23.14;63.34
14134;BME280;7147;59.364;18.018;2022-08-25T10:44:14;102112.75;;;23.32;62.72
14134;BME280;7147;59.364;18.018;2022-08-25T10:50:04;102103.53;;;23.20;62.59
14134;BME280;7147;59.364;18.018;2022-08-25T10:52:38;102093.66;;;23.17;63.64
14134;BME280;7147;59.364;18.018;2022-08-25T10:55:17;102098.28;;;23.40;63.48
14134;BME280;7147;59.364;18.018;2022-08-25T10:57:54;102097.09;;;23.53;62.69
14134;BME280;7147;59.364;18.018;2022-08-25T11:00:26;102091.72;;;23.51;62.19
14134;BME280;7147;59.364;18.018;2022-08-25T11:03:19;102091.72;;;23.51;62.37
14134;BME280;7147;59.364;18.018;2022-08-25T11:05:53;102086.94;;;23.68;61.89
14134;BME280;7147;59.364;18.018;2022-08-25T11:08:29;102089.84;;;23.73;61.42
14134;BME280;7147;59.364;18.018;2022-08-25T11:11:02;102079.53;;;23.62;61.23
14134;BME280;7147;59.364;18.018;2022-08-25T11:13:40;102092.81;;;23.67;61.06
14134;BME280;7147;59.364;18.018;2022-08-25T11:16:10;102092.78;;;23.83;60.80
14134;BME280;7147;59.364;18.018;2022-08-25T11:18:45;102099.72;;;23.98;60.20
14134;BME280;7147;59.364;18.018;2022-08-25T11:21:16;102097.00;;;24.03;60.16
14134;BME280;7147;59.364;18.018;2022-08-25T11:23:49;102092.78;;;23.83;60.17
14134;BME280;7147;59.364;18.018;2022-08-25T11:26:24;102096.69;;;23.99;59.96
14134;BME280;7147;59.364;18.018;2022-08-25T11:29:00;102089.50;;;24.08;59.98
14134;BME280;7147;59.364;18.018;2022-08-25T11:31:28;102092.66;;;23.95;59.50
14134;BME280;7147;59.364;18.018;2022-08-25T11:33:57;102084.13;;;23.68;59.66
14134;BME280;7147;59.364;18.018;2022-08-25T11:36:29;102094.69;;;23.78;59.49
14134;BME280;7147;59.364;18.018;2022-08-25T11:39:07;102090.75;;;23.79;59.39
14134;BME280;7147;59.364;18.018;2022-08-25T11:41:49;102082.38;;;23.84;59.67
14134;BME280;7147;59.364;18.018;2022-08-25T11:44:43;102087.13;;;24.00;58.85
14134;BME280;7147;59.364;18.018;2022-08-25T11:47:27;102083.25;;;23.84;59.02
14134;BME280;7147;59.364;18.018;2022-08-25T11:50:00;102074.22;;;23.82;59.50
14134;BME280;7147;59.364;18.018;2022-08-25T11:52:47;102071.31;;;23.77;59.48
14134;BME280;7147;59.364;18.018;2022-08-25T11:55:21;102072.00;;;23.84;59.12
14134;BME280;7147;59.364;18.018;2022-08-25T11:57:50;102060.47;;;23.86;58.93
14134;BME280;7147;59.364;18.018;2022-08-25T12:00:36;102059.84;;;23.62;59.48
14134;BME280;7147;59.364;18.018;2022-08-25T12:06:25;102045.63;;;23.69;59.03
14134;BME280;7147;59.364;18.018;2022-08-25T12:09:15;102048.78;;;23.72;59.31
14134;BME280;7147;59.364;18.018;2022-08-25T12:11:52;102041.94;;;23.68;58.81
14134;BME280;7147;59.364;18.018;2022-08-25T12:14:42;102045.03;;;23.88;57.74
14134;BME280;7147;59.364;18.018;2022-08-25T12:17:39;102032.75;;;23.95;58.39
14134;BME280;7147;59.364;18.018;2022-08-25T12:20:07;102012.19;;;24.11;57.92
14134;BME280;7147;59.364;18.018;2022-08-25T12:22:53;102016.06;;;24.26;57.94
14134;BME280;7147;59.364;18.018;2022-08-25T12:25:33;102005.78;;;24.42;57.85
14134;BME280;7147;59.364;18.018;2022-08-25T12:28:07;102007.72;;;24.63;57.07
14134;BME280;7147;59.364;18.018;2022-08-25T12:30:44;102010.44;;;24.53;56.72
14134;BME280;7147;59.364;18.018;2022-08-25T12:33:19;101999.31;;;24.68;56.43
14134;BME280;7147;59.364;18.018;2022-08-25T12:35:54;101998.78;;;24.71;56.54
14134;BME280;7147;59.364;18.018;2022-08-25T12:38:30;102004.47;;;24.76;56.32
14134;BME280;7147;59.364;18.018;2022-08-25T12:41:01;101991.38;;;24.65;56.41
14134;BME280;7147;59.364;18.018;2022-08-25T12:43:31;102001.13;;;24.79;56.45
14134;BME280;7147;59.364;18.018;2022-08-25T12:46:32;102001.06;;;24.74;55.65
14134;BME280;7147;59.364;18.018;2022-08-25T12:49:00;101994.31;;;24.75;55.28
14134;BME280;7147;59.364;18.018;2022-08-25T12:51:49;101989.97;;;24.63;55.27
14134;BME280;7147;59.364;18.018;2022-08-25T12:54:22;101983.53;;;24.67;54.32
14134;BME280;7147;59.364;18.018;2022-08-25T12:56:55;101980.72;;;24.67;54.80
14134;BME280;7147;59.364;18.018;2022-08-25T12:59:31;101980.09;;;24.60;55.03
14134;BME280;7147;59.364;18.018;2022-08-25T13:02:23;101974.78;;;24.64;54.69
14134;BME280;7147;59.364;18.018;2022-08-25T13:05:04;101982.81;;;24.50;55.20
14134;BME280;7147;59.364;18.018;2022-08-25T13:07:45;101984.50;;;24.51;55.83
14134;BME280;7147;59.364;18.018;2022-08-25T13:10:22;101976.00;;;24.73;55.07